AAL1354 KCLT-KDCA
Flight info
| Callsign | AAL1354 |
|---|---|
| Flight time | 0h 53m |
| Altitude | 29000 |
| Route | KILNS5 AUDII WAVES CAPSS4 |
| Aircraft | A319/M-SDE3FGHIRWY/LB1 |
Departure
| Time | 2026-05-04 23:02 |
|---|---|
| Airport | Charlotte Douglas International Airport (KCLT) |
Arrival
| Time | 2026-05-04 23:56 |
|---|---|
| Airport | Ronald Reagan Washington National Airport (KDCA) |
| Time | Latitude | Longitude | Altitude | Speed | Heading |
|---|---|---|---|---|---|
| 2026-05-04 22:43 | 35.22017 | -80.93926 | 728 ft | 0 kts | 324° |
| 2026-05-04 22:48 | 35.22016 | -80.93926 | 728 ft | 0 kts | 324° |
| 2026-05-04 22:51 | 35.22011 | -80.93921 | 727 ft | 4 kts | 324° |
| 2026-05-04 22:51 | 35.21989 | -80.93903 | 726 ft | 4 kts | 340° |
| 2026-05-04 22:51 | 35.21972 | -80.93901 | 726 ft | 2 kts | 54° |
| 2026-05-04 22:51 | 35.21971 | -80.93903 | 726 ft | 3 kts | 54° |
| 2026-05-04 22:53 | 35.21971 | -80.93902 | 726 ft | 1 kts | 59° |
| 2026-05-04 22:53 | 35.21986 | -80.93836 | 726 ft | 13 kts | 65° |
| 2026-05-04 22:54 | 35.22066 | -80.93801 | 727 ft | 13 kts | 356° |
| 2026-05-04 22:54 | 35.22180 | -80.93790 | 728 ft | 17 kts | 47° |
| 2026-05-04 22:54 | 35.22271 | -80.93733 | 729 ft | 16 kts | 360° |
| 2026-05-04 22:54 | 35.22295 | -80.93733 | 730 ft | 2 kts | 353° |
| 2026-05-04 22:55 | 35.22352 | -80.93741 | 731 ft | 12 kts | 356° |
| 2026-05-04 22:55 | 35.22437 | -80.93748 | 731 ft | 12 kts | 356° |
| 2026-05-04 22:55 | 35.22498 | -80.93730 | 732 ft | 0 kts | 49° |
| 2026-05-04 22:56 | 35.22500 | -80.93721 | 738 ft | 3 kts | 68° |
| 2026-05-04 22:57 | 35.22506 | -80.93697 | 732 ft | 3 kts | 72° |
| 2026-05-04 22:57 | 35.22508 | -80.93673 | 732 ft | 0 kts | 86° |
| 2026-05-04 22:58 | 35.22508 | -80.93674 | 732 ft | 1 kts | 86° |
| 2026-05-04 22:58 | 35.22508 | -80.93679 | 732 ft | 0 kts | 85° |
| 2026-05-04 22:58 | 35.22503 | -80.93635 | 732 ft | 11 kts | 124° |
| 2026-05-04 22:59 | 35.22428 | -80.93611 | 731 ft | 0 kts | 175° |
| 2026-05-04 23:00 | 35.22426 | -80.93611 | 730 ft | 1 kts | 175° |
| 2026-05-04 23:01 | 35.22422 | -80.93610 | 730 ft | 3 kts | 175° |
| 2026-05-04 23:01 | 35.22202 | -80.93591 | 729 ft | 70 kts | 176° |
| 2026-05-04 23:02 | 35.21483 | -80.93529 | 722 ft | 133 kts | 176° |
| 2026-05-04 23:02 | 35.20444 | -80.93441 | 1038 ft | 155 kts | 178° |
| 2026-05-04 23:02 | 35.19352 | -80.93350 | 1724 ft | 159 kts | 177° |
| 2026-05-04 23:02 | 35.18240 | -80.93266 | 2421 ft | 162 kts | 179° |
| 2026-05-04 23:03 | 35.17081 | -80.93141 | 2966 ft | 177 kts | 174° |
| 2026-05-04 23:03 | 35.15901 | -80.92446 | 3263 ft | 208 kts | 135° |
| 2026-05-04 23:03 | 35.15330 | -80.90719 | 3692 ft | 242 kts | 94° |
| 2026-05-04 23:03 | 35.15638 | -80.88584 | 4174 ft | 270 kts | 73° |
| 2026-05-04 23:04 | 35.16378 | -80.86422 | 4985 ft | 281 kts | 65° |
| 2026-05-04 23:04 | 35.17263 | -80.84264 | 5932 ft | 286 kts | 62° |
| 2026-05-04 23:04 | 35.18167 | -80.82100 | 6859 ft | 292 kts | 62° |
| 2026-05-04 23:04 | 35.19069 | -80.79857 | 7778 ft | 296 kts | 63° |
| 2026-05-04 23:05 | 35.19960 | -80.77529 | 8719 ft | 301 kts | 64° |
| 2026-05-04 23:05 | 35.20824 | -80.75177 | 9627 ft | 306 kts | 65° |
| 2026-05-04 23:05 | 35.21680 | -80.72786 | 10365 ft | 318 kts | 65° |
| 2026-05-04 23:05 | 35.22591 | -80.70215 | 10684 ft | 342 kts | 65° |
| 2026-05-04 23:06 | 35.23559 | -80.67472 | 11226 ft | 356 kts | 65° |
| 2026-05-04 23:06 | 35.24545 | -80.64673 | 11998 ft | 361 kts | 65° |
| 2026-05-04 23:06 | 35.25548 | -80.61820 | 12813 ft | 366 kts | 65° |
| 2026-05-04 23:06 | 35.26577 | -80.58893 | 13079 ft | 387 kts | 65° |
| 2026-05-04 23:07 | 35.27672 | -80.55787 | 13360 ft | 404 kts | 65° |
| 2026-05-04 23:07 | 35.28790 | -80.52602 | 13976 ft | 411 kts | 64° |
| 2026-05-04 23:07 | 35.29919 | -80.49378 | 14629 ft | 414 kts | 64° |
| 2026-05-04 23:07 | 35.31062 | -80.46111 | 15208 ft | 421 kts | 64° |
| 2026-05-04 23:08 | 35.32257 | -80.42703 | 15359 ft | 438 kts | 64° |
| 2026-05-04 23:08 | 35.33454 | -80.39288 | 15772 ft | 444 kts | 64° |
| 2026-05-04 23:08 | 35.34675 | -80.35790 | 16276 ft | 448 kts | 65° |
| 2026-05-04 23:08 | 35.35903 | -80.32267 | 16794 ft | 451 kts | 65° |
| 2026-05-04 23:09 | 35.37144 | -80.28706 | 17287 ft | 455 kts | 65° |
| 2026-05-04 23:09 | 35.38395 | -80.25115 | 17769 ft | 459 kts | 65° |
| 2026-05-04 23:09 | 35.39649 | -80.21508 | 18244 ft | 462 kts | 65° |
| 2026-05-04 23:09 | 35.40912 | -80.17874 | 18662 ft | 465 kts | 65° |
| 2026-05-04 23:10 | 35.42184 | -80.14213 | 19066 ft | 468 kts | 64° |
| 2026-05-04 23:10 | 35.43459 | -80.10531 | 19463 ft | 471 kts | 64° |
| 2026-05-04 23:10 | 35.44740 | -80.06826 | 19832 ft | 473 kts | 64° |
| 2026-05-04 23:10 | 35.46027 | -80.03093 | 20192 ft | 476 kts | 64° |
| 2026-05-04 23:11 | 35.47320 | -79.99345 | 20539 ft | 479 kts | 64° |
| 2026-05-04 23:11 | 35.48624 | -79.95571 | 20869 ft | 482 kts | 64° |
| 2026-05-04 23:11 | 35.49879 | -79.91942 | 20987 ft | 489 kts | 64° |
| 2026-05-04 23:11 | 35.51240 | -79.88003 | 21140 ft | 495 kts | 64° |
| 2026-05-04 23:12 | 35.52584 | -79.84097 | 21373 ft | 498 kts | 64° |
| 2026-05-04 23:12 | 35.53925 | -79.80162 | 21643 ft | 501 kts | 65° |
| 2026-05-04 23:12 | 35.55218 | -79.76179 | 21935 ft | 503 kts | 66° |
| 2026-05-04 23:12 | 35.56467 | -79.72163 | 22214 ft | 505 kts | 67° |
| 2026-05-04 23:13 | 35.57698 | -79.68110 | 22463 ft | 507 kts | 67° |
| 2026-05-04 23:13 | 35.58928 | -79.64041 | 22720 ft | 509 kts | 67° |
| 2026-05-04 23:13 | 35.60176 | -79.59948 | 22966 ft | 511 kts | 67° |
| 2026-05-04 23:13 | 35.61433 | -79.55868 | 23252 ft | 511 kts | 66° |
| 2026-05-04 23:14 | 35.62695 | -79.51803 | 23777 ft | 507 kts | 66° |
| 2026-05-04 23:14 | 35.63959 | -79.47746 | 24080 ft | 508 kts | 66° |
| 2026-05-04 23:14 | 35.65224 | -79.43686 | 24258 ft | 511 kts | 66° |
| 2026-05-04 23:14 | 35.66494 | -79.39592 | 24535 ft | 512 kts | 67° |
| 2026-05-04 23:15 | 35.67755 | -79.35506 | 24858 ft | 511 kts | 67° |
| 2026-05-04 23:15 | 35.69074 | -79.31441 | 25166 ft | 509 kts | 62° |
| 2026-05-04 23:15 | 35.70870 | -79.27720 | 25478 ft | 504 kts | 50° |
| 2026-05-04 23:15 | 35.73176 | -79.24505 | 25808 ft | 498 kts | 39° |
| 2026-05-04 23:16 | 35.75867 | -79.21862 | 26150 ft | 493 kts | 32° |
| 2026-05-04 23:16 | 35.78640 | -79.19361 | 26524 ft | 493 kts | 32° |
| 2026-05-04 23:16 | 35.81396 | -79.16845 | 26891 ft | 493 kts | 32° |
| 2026-05-04 23:16 | 35.84139 | -79.14321 | 27253 ft | 492 kts | 32° |
| 2026-05-04 23:17 | 35.86889 | -79.11781 | 27619 ft | 492 kts | 32° |
| 2026-05-04 23:17 | 35.89628 | -79.09252 | 27995 ft | 492 kts | 32° |
| 2026-05-04 23:17 | 35.92367 | -79.06726 | 28296 ft | 493 kts | 32° |
| 2026-05-04 23:17 | 35.95094 | -79.04215 | 28879 ft | 486 kts | 32° |
| 2026-05-04 23:18 | 35.97859 | -79.01671 | 28997 ft | 492 kts | 32° |
| 2026-05-04 23:18 | 36.00586 | -78.99166 | 29030 ft | 494 kts | 32° |
| 2026-05-04 23:18 | 36.06113 | -78.94066 | 29005 ft | 492 kts | 32° |
| 2026-05-04 23:19 | 36.11589 | -78.88999 | 29010 ft | 492 kts | 32° |
| 2026-05-04 23:19 | 36.17069 | -78.83921 | 29016 ft | 492 kts | 32° |
| 2026-05-04 23:20 | 36.22550 | -78.78827 | 29050 ft | 492 kts | 32° |
| 2026-05-04 23:20 | 36.27894 | -78.73702 | 29034 ft | 491 kts | 33° |
| 2026-05-04 23:21 | 36.33236 | -78.68489 | 29023 ft | 490 kts | 33° |
| 2026-05-04 23:21 | 36.38578 | -78.63301 | 28995 ft | 490 kts | 33° |
| 2026-05-04 23:22 | 36.43963 | -78.58101 | 28990 ft | 491 kts | 33° |
| 2026-05-04 23:22 | 36.49379 | -78.52864 | 29012 ft | 490 kts | 33° |
| 2026-05-04 23:23 | 36.54723 | -78.47678 | 29002 ft | 489 kts | 33° |
| 2026-05-04 23:23 | 36.60091 | -78.42457 | 28987 ft | 489 kts | 33° |
| 2026-05-04 23:24 | 36.65454 | -78.37227 | 28983 ft | 489 kts | 33° |
| 2026-05-04 23:24 | 36.70808 | -78.32005 | 29018 ft | 487 kts | 33° |
| 2026-05-04 23:25 | 36.76125 | -78.26811 | 29046 ft | 485 kts | 33° |
| 2026-05-04 23:25 | 36.80565 | -78.22456 | 29043 ft | 484 kts | 33° |
| 2026-05-04 23:26 | 36.85862 | -78.17254 | 29024 ft | 483 kts | 33° |
| 2026-05-04 23:26 | 36.91130 | -78.12068 | 29005 ft | 481 kts | 34° |
| 2026-05-04 23:27 | 36.96384 | -78.06883 | 28994 ft | 480 kts | 34° |
| 2026-05-04 23:27 | 37.01628 | -78.01711 | 28983 ft | 478 kts | 34° |
| 2026-05-04 23:28 | 37.06848 | -77.96566 | 28973 ft | 478 kts | 34° |
| 2026-05-04 23:28 | 37.12080 | -77.91385 | 28965 ft | 479 kts | 34° |
| 2026-05-04 23:29 | 37.17311 | -77.86196 | 28951 ft | 480 kts | 34° |
| 2026-05-04 23:29 | 37.22551 | -77.80990 | 28961 ft | 481 kts | 34° |
| 2026-05-04 23:30 | 37.27801 | -77.75768 | 28905 ft | 482 kts | 34° |
| 2026-05-04 23:30 | 37.30435 | -77.73143 | 28626 ft | 483 kts | 34° |
| 2026-05-04 23:30 | 37.33063 | -77.70515 | 28371 ft | 484 kts | 34° |
| 2026-05-04 23:31 | 37.35699 | -77.67876 | 28094 ft | 484 kts | 34° |
| 2026-05-04 23:31 | 37.38320 | -77.65249 | 27212 ft | 482 kts | 34° |
| 2026-05-04 23:31 | 37.40941 | -77.62620 | 25896 ft | 481 kts | 34° |
| 2026-05-04 23:31 | 37.43555 | -77.60000 | 24643 ft | 479 kts | 34° |
| 2026-05-04 23:32 | 37.46158 | -77.57394 | 23455 ft | 477 kts | 34° |
| 2026-05-04 23:32 | 37.48725 | -77.54822 | 22772 ft | 462 kts | 34° |
| 2026-05-04 23:32 | 37.51165 | -77.52363 | 22628 ft | 438 kts | 34° |
| 2026-05-04 23:32 | 37.53512 | -77.49990 | 22466 ft | 417 kts | 33° |
| 2026-05-04 23:33 | 37.55747 | -77.47738 | 21995 ft | 408 kts | 33° |
| 2026-05-04 23:33 | 37.58055 | -77.45753 | 21647 ft | 395 kts | 23° |
| 2026-05-04 23:33 | 37.60535 | -77.44342 | 21390 ft | 387 kts | 13° |
| 2026-05-04 23:33 | 37.63110 | -77.43451 | 21132 ft | 382 kts | 7° |
| 2026-05-04 23:34 | 37.65689 | -77.42666 | 20889 ft | 381 kts | 8° |
| 2026-05-04 23:34 | 37.68256 | -77.41871 | 20662 ft | 380 kts | 8° |
| 2026-05-04 23:34 | 37.70819 | -77.41070 | 20288 ft | 378 kts | 8° |
| 2026-05-04 23:34 | 37.73363 | -77.40275 | 19917 ft | 375 kts | 8° |
| 2026-05-04 23:35 | 37.75890 | -77.39489 | 19547 ft | 373 kts | 8° |
| 2026-05-04 23:35 | 37.78409 | -77.38708 | 19181 ft | 371 kts | 8° |
| 2026-05-04 23:35 | 37.80909 | -77.37933 | 18811 ft | 369 kts | 8° |
| 2026-05-04 23:35 | 37.83397 | -77.37160 | 18445 ft | 367 kts | 8° |
| 2026-05-04 23:36 | 37.85904 | -77.36384 | 18060 ft | 365 kts | 8° |
| 2026-05-04 23:36 | 37.88368 | -77.35622 | 17689 ft | 363 kts | 8° |
| 2026-05-04 23:36 | 37.90787 | -77.34875 | 17334 ft | 361 kts | 8° |
| 2026-05-04 23:36 | 37.93219 | -77.34125 | 16982 ft | 358 kts | 8° |
| 2026-05-04 23:37 | 37.95637 | -77.33381 | 16631 ft | 356 kts | 8° |
| 2026-05-04 23:37 | 37.98036 | -77.32643 | 16265 ft | 355 kts | 8° |
| 2026-05-04 23:37 | 38.00431 | -77.31909 | 15917 ft | 353 kts | 8° |
| 2026-05-04 23:37 | 38.02812 | -77.31181 | 15569 ft | 351 kts | 8° |
| 2026-05-04 23:38 | 38.05174 | -77.30453 | 15224 ft | 348 kts | 8° |
| 2026-05-04 23:38 | 38.07526 | -77.29727 | 14877 ft | 346 kts | 8° |
| 2026-05-04 23:38 | 38.09856 | -77.29005 | 14536 ft | 344 kts | 8° |
| 2026-05-04 23:38 | 38.12177 | -77.28280 | 14197 ft | 342 kts | 8° |
| 2026-05-04 23:39 | 38.14507 | -77.27542 | 13855 ft | 340 kts | 8° |
| 2026-05-04 23:39 | 38.16796 | -77.26816 | 13500 ft | 338 kts | 8° |
| 2026-05-04 23:39 | 38.19070 | -77.26095 | 13166 ft | 335 kts | 8° |
| 2026-05-04 23:39 | 38.21327 | -77.25356 | 12861 ft | 335 kts | 9° |
| 2026-05-04 23:40 | 38.23543 | -77.24551 | 12607 ft | 335 kts | 11° |
| 2026-05-04 23:40 | 38.25806 | -77.23684 | 12330 ft | 334 kts | 11° |
| 2026-05-04 23:40 | 38.28007 | -77.22829 | 12068 ft | 333 kts | 11° |
| 2026-05-04 23:40 | 38.30226 | -77.21972 | 11810 ft | 333 kts | 11° |
| 2026-05-04 23:41 | 38.32443 | -77.21120 | 11568 ft | 332 kts | 11° |
| 2026-05-04 23:41 | 38.34656 | -77.20273 | 11300 ft | 331 kts | 12° |
| 2026-05-04 23:41 | 38.36883 | -77.19420 | 11037 ft | 329 kts | 11° |
| 2026-05-04 23:41 | 38.39070 | -77.18584 | 10886 ft | 328 kts | 11° |
| 2026-05-04 23:42 | 38.41267 | -77.17738 | 10813 ft | 328 kts | 11° |
| 2026-05-04 23:42 | 38.43426 | -77.16905 | 10721 ft | 330 kts | 12° |
| 2026-05-04 23:42 | 38.45634 | -77.16052 | 10608 ft | 329 kts | 12° |
| 2026-05-04 23:42 | 38.47829 | -77.15205 | 10506 ft | 330 kts | 12° |
| 2026-05-04 23:43 | 38.50000 | -77.14367 | 10400 ft | 329 kts | 12° |
| 2026-05-04 23:43 | 38.52176 | -77.13524 | 10270 ft | 322 kts | 12° |
| 2026-05-04 23:43 | 38.54235 | -77.12721 | 10156 ft | 310 kts | 11° |
| 2026-05-04 23:43 | 38.56264 | -77.11927 | 10017 ft | 300 kts | 11° |
| 2026-05-04 23:44 | 38.58240 | -77.11157 | 9827 ft | 292 kts | 11° |
| 2026-05-04 23:44 | 38.60135 | -77.10428 | 9622 ft | 293 kts | 11° |
| 2026-05-04 23:44 | 38.62081 | -77.09686 | 9314 ft | 292 kts | 11° |
| 2026-05-04 23:44 | 38.64021 | -77.08944 | 9037 ft | 292 kts | 12° |
| 2026-05-04 23:45 | 38.65973 | -77.08195 | 8726 ft | 294 kts | 12° |
| 2026-05-04 23:45 | 38.67856 | -77.07471 | 8404 ft | 295 kts | 12° |
| 2026-05-04 23:45 | 38.69851 | -77.07002 | 8101 ft | 289 kts | 359° |
| 2026-05-04 23:45 | 38.71860 | -77.06863 | 7810 ft | 289 kts | 359° |
| 2026-05-04 23:46 | 38.73869 | -77.06666 | 7518 ft | 290 kts | 0° |
| 2026-05-04 23:46 | 38.75869 | -77.06688 | 7237 ft | 285 kts | 346° |
| 2026-05-04 23:46 | 38.77740 | -77.07391 | 6955 ft | 278 kts | 330° |
| 2026-05-04 23:46 | 38.79388 | -77.08642 | 6668 ft | 275 kts | 322° |
| 2026-05-04 23:47 | 38.81001 | -77.09986 | 6387 ft | 277 kts | 322° |
| 2026-05-04 23:47 | 38.82628 | -77.11322 | 6095 ft | 277 kts | 322° |
| 2026-05-04 23:47 | 38.84032 | -77.12979 | 5728 ft | 268 kts | 300° |
| 2026-05-04 23:47 | 38.85032 | -77.14880 | 5260 ft | 271 kts | 304° |
| 2026-05-04 23:48 | 38.86364 | -77.16626 | 4811 ft | 276 kts | 313° |
| 2026-05-04 23:48 | 38.87831 | -77.18234 | 4418 ft | 275 kts | 315° |
| 2026-05-04 23:48 | 38.89307 | -77.19810 | 3983 ft | 275 kts | 315° |
| 2026-05-04 23:48 | 38.90746 | -77.21396 | 3658 ft | 271 kts | 314° |
| 2026-05-04 23:49 | 38.92121 | -77.22981 | 3341 ft | 268 kts | 313° |
| 2026-05-04 23:49 | 38.93440 | -77.24550 | 3250 ft | 253 kts | 312° |
| 2026-05-04 23:49 | 38.94784 | -77.25707 | 3251 ft | 239 kts | 333° |
| 2026-05-04 23:49 | 38.96351 | -77.26129 | 3265 ft | 227 kts | 357° |
| 2026-05-04 23:50 | 38.97875 | -77.25759 | 3287 ft | 222 kts | 21° |
| 2026-05-04 23:50 | 38.99160 | -77.24674 | 3323 ft | 221 kts | 47° |
| 2026-05-04 23:50 | 39.00018 | -77.23058 | 3357 ft | 218 kts | 71° |
| 2026-05-04 23:50 | 39.00339 | -77.21187 | 3369 ft | 210 kts | 95° |
| 2026-05-04 23:51 | 39.00126 | -77.19383 | 3406 ft | 201 kts | 117° |
| 2026-05-04 23:51 | 38.99497 | -77.17884 | 3437 ft | 180 kts | 135° |
| 2026-05-04 23:51 | 38.98624 | -77.16811 | 3156 ft | 171 kts | 153° |
| 2026-05-04 23:51 | 38.97616 | -77.16090 | 2977 ft | 162 kts | 159° |
| 2026-05-04 23:52 | 38.96647 | -77.15407 | 2841 ft | 158 kts | 156° |
| 2026-05-04 23:52 | 38.96061 | -77.14832 | 2739 ft | 158 kts | 147° |
| 2026-05-04 23:52 | 38.95232 | -77.13905 | 2505 ft | 158 kts | 147° |
| 2026-05-04 23:52 | 38.94398 | -77.12983 | 2285 ft | 158 kts | 147° |
| 2026-05-04 23:53 | 38.93567 | -77.12063 | 2069 ft | 156 kts | 147° |
| 2026-05-04 23:53 | 38.92699 | -77.11350 | 1992 ft | 137 kts | 162° |
| 2026-05-04 23:53 | 38.91879 | -77.10797 | 1997 ft | 131 kts | 158° |
| 2026-05-04 23:53 | 38.91140 | -77.10129 | 1923 ft | 130 kts | 148° |
| 2026-05-04 23:54 | 38.90613 | -77.09135 | 1905 ft | 138 kts | 123° |
| 2026-05-04 23:54 | 38.90342 | -77.07946 | 1839 ft | 139 kts | 117° |
| 2026-05-04 23:54 | 38.89879 | -77.06927 | 1715 ft | 128 kts | 141° |
| 2026-05-04 23:54 | 38.89268 | -77.06077 | 1397 ft | 135 kts | 140° |
| 2026-05-04 23:55 | 38.88593 | -77.05155 | 840 ft | 147 kts | 139° |
| 2026-05-04 23:55 | 38.87812 | -77.04358 | 458 ft | 139 kts | 154° |
| 2026-05-04 23:55 | 38.86066 | -77.03861 | 67 ft | 124 kts | 179° |
| 2026-05-04 23:56 | 38.85222 | -77.03784 | 23 ft | 107 kts | 175° |
| 2026-05-04 23:56 | 38.84724 | -77.03732 | 24 ft | 44 kts | 175° |
| 2026-05-04 23:56 | 38.84464 | -77.03708 | 24 ft | 30 kts | 178° |
| 2026-05-04 23:56 | 38.84401 | -77.03821 | 27 ft | 11 kts | 304° |
| 2026-05-04 23:57 | 38.84479 | -77.03842 | 25 ft | 13 kts | 353° |
| 2026-05-04 23:57 | 38.84613 | -77.03862 | 25 ft | 34 kts | 355° |
| 2026-05-04 23:57 | 38.84852 | -77.03886 | 21 ft | 29 kts | 356° |
| 2026-05-04 23:57 | 38.85045 | -77.03904 | 22 ft | 23 kts | 355° |
| 2026-05-04 23:58 | 38.85203 | -77.03921 | 22 ft | 23 kts | 355° |
| 2026-05-04 23:58 | 38.85341 | -77.03954 | 23 ft | 9 kts | 296° |
| 2026-05-04 23:58 | 38.85369 | -77.03994 | 24 ft | 7 kts | 355° |
| 2026-05-04 23:58 | 38.85426 | -77.04021 | 25 ft | 9 kts | 295° |
| 2026-05-04 23:59 | 38.85422 | -77.04077 | 25 ft | 0 kts | 267° |